»·PEaware :: ASA1356 KSEA-KSFO

ASA1356 :: KSEA-KSFO

FLIGHT INFORMATION

Flight Status: Arrived
Operator:
Alaska Airlines
More flights by this operator :: More flights under this callsign
Pilot: Sean T. (30125)
Aircraft: AIRBUS A319
(A319)
More flights by this aircraft type
Origin: KSEA Seattle-Tacoma Intl
United States
Destination: KSFO San Francisco Intl
United States
More flights between these airports :: More routes between these airports
Route: HAROB6 ERAVE Q1 ETCHY MLBEC BDEGA3
File this flight plan on PilotEdge
Remarks:
Altitude:
(Current/Filed)
33,000ft
Speed:
(Current/Filed)
290kts
Departed: 18-Feb-21 06:33 PM
Arrived: 18-Feb-21 08:24 PM
Distance/Time
Traveled:
590nm/1:51
Distance/Time
To Go:
Arrived

Flight Plot

Page will automatically refresh every two minutes.

Flight plan parsing failed; only flown route is shown


Map Options




Map Legend


Flown Route
Filed Route
Departure Airport
Arrival Airport
Navaid (VOR, NDB)
Fix

Horizontal Profiles

Position Reports

Time Latitude Longitude Heading Altitude Ground
Speed
18-Feb-21 18:06 47.448943 -122.301732 222 403ft 0kts
18-Feb-21 18:07 47.448943 -122.301732 222 403ft 0kts
18-Feb-21 18:08 47.448943 -122.301732 222 403ft 0kts
18-Feb-21 18:09 47.448943 -122.301732 222 403ft 0kts
18-Feb-21 18:10 47.448943 -122.301732 222 403ft 0kts
18-Feb-21 18:11 47.448943 -122.301732 222 403ft 0kts
18-Feb-21 18:12 47.448943 -122.301732 222 403ft 0kts
18-Feb-21 18:13 47.448943 -122.301732 222 403ft 0kts
18-Feb-21 18:14 47.448943 -122.301732 222 403ft 0kts
18-Feb-21 18:15 47.448943 -122.301732 222 403ft 0kts
18-Feb-21 18:16 47.448943 -122.301732 222 403ft 0kts
18-Feb-21 18:17 47.448943 -122.301732 222 403ft 0kts
18-Feb-21 18:18 47.448943 -122.301732 222 403ft 0kts
18-Feb-21 18:19 47.448943 -122.301732 222 403ft 0kts
18-Feb-21 18:20 47.448944 -122.301732 222 403ft 0kts
18-Feb-21 18:21 47.449123 -122.301505 230 403ft 2kts
18-Feb-21 18:22 47.449096 -122.300846 311 400ft 0kts
18-Feb-21 18:23 47.449096 -122.300845 311 400ft 0kts
18-Feb-21 18:24 47.449112 -122.300872 311 401ft 2kts
18-Feb-21 18:25 47.450048 -122.302374 289 409ft 10kts
18-Feb-21 18:26 47.450104 -122.304551 271 412ft 8kts
18-Feb-21 18:27 47.452386 -122.306230 0 422ft 13kts
18-Feb-21 18:28 47.455926 -122.306193 0 437ft 10kts
18-Feb-21 18:29 47.460245 -122.306166 0 441ft 15kts
18-Feb-21 18:30 47.463634 -122.306328 309 418ft 0kts
18-Feb-21 18:31 47.463545 -122.307677 214 409ft 5kts
18-Feb-21 18:32 47.440222 -122.308066 180 812ft 165kts
18-Feb-21 18:33 47.398542 -122.312035 182 3392ft 157kts
18-Feb-21 18:34 47.346147 -122.310731 184 4930ft 222kts
18-Feb-21 18:35 47.311904 -122.379714 267 7295ft 247kts
18-Feb-21 18:36 47.307688 -122.475119 272 11066ft 222kts
18-Feb-21 18:37 47.310428 -122.567044 270 13728ft 227kts
18-Feb-21 18:38 47.313046 -122.666187 269 15004ft 280kts
18-Feb-21 18:39 47.307515 -122.796956 252 15887ft 345kts
18-Feb-21 18:40 47.273602 -122.927723 248 18913ft 337kts
18-Feb-21 18:41 47.233280 -123.047284 229 21965ft 321kts
18-Feb-21 18:42 47.161080 -123.130194 219 23026ft 355kts
18-Feb-21 18:43 47.082339 -123.215361 220 25537ft 339kts
18-Feb-21 18:44 47.011018 -123.292207 222 28508ft 298kts
18-Feb-21 18:45 46.948176 -123.359799 222 30755ft 268kts
18-Feb-21 18:46 46.879331 -123.397442 201 32247ft 280kts
18-Feb-21 18:47 46.799247 -123.397424 196 33026ft 296kts
18-Feb-21 18:48 46.712721 -123.395175 194 33060ft 325kts
18-Feb-21 18:49 46.618754 -123.392348 193 33073ft 354kts
18-Feb-21 18:50 46.516744 -123.389182 192 33077ft 380kts
18-Feb-21 18:51 46.407902 -123.385795 192 33077ft 404kts
18-Feb-21 18:52 46.293846 -123.382112 191 33085ft 413kts
18-Feb-21 18:53 46.179652 -123.378476 191 33105ft 412kts
18-Feb-21 18:54 46.065147 -123.374984 191 33110ft 412kts
18-Feb-21 18:55 45.952494 -123.371576 191 33111ft 412kts
18-Feb-21 18:56 45.838079 -123.368053 191 33112ft 411kts
18-Feb-21 18:57 45.723702 -123.364549 191 33113ft 411kts
18-Feb-21 18:58 45.609759 -123.361132 191 33113ft 411kts
18-Feb-21 18:59 45.495273 -123.357713 191 33113ft 412kts
18-Feb-21 19:00 45.381257 -123.354329 191 33113ft 412kts
18-Feb-21 19:01 45.266746 -123.350942 191 33114ft 411kts
18-Feb-21 19:02 45.152471 -123.347584 191 33114ft 411kts
18-Feb-21 19:03 45.038291 -123.344153 192 33113ft 413kts
18-Feb-21 19:04 44.923401 -123.340800 193 33114ft 415kts
18-Feb-21 19:05 44.808434 -123.337414 193 33126ft 415kts
18-Feb-21 19:06 44.693078 -123.334036 193 33137ft 415kts
18-Feb-21 19:07 44.577853 -123.330700 193 33140ft 415kts
18-Feb-21 19:08 44.462843 -123.327098 193 33140ft 415kts
18-Feb-21 19:09 44.347624 -123.322416 193 33142ft 415kts
18-Feb-21 19:10 44.232365 -123.317810 193 33147ft 415kts
18-Feb-21 19:11 44.117275 -123.313234 193 33156ft 415kts
18-Feb-21 19:12 44.001719 -123.308686 193 33159ft 416kts
18-Feb-21 19:13 43.886677 -123.304189 193 33161ft 415kts
18-Feb-21 19:14 43.771544 -123.299534 193 33161ft 415kts
18-Feb-21 19:15 43.656269 -123.295011 193 33173ft 416kts
18-Feb-21 19:16 43.541043 -123.290511 193 33182ft 415kts
18-Feb-21 19:17 43.426178 -123.286055 193 33186ft 415kts
18-Feb-21 19:18 43.310827 -123.281598 193 33186ft 414kts
18-Feb-21 19:19 43.195751 -123.277171 193 33186ft 415kts
18-Feb-21 19:20 43.080788 -123.272756 193 33186ft 415kts
18-Feb-21 19:21 42.964736 -123.268479 192 33182ft 424kts
18-Feb-21 19:22 42.844405 -123.263932 190 33185ft 439kts
18-Feb-21 19:23 42.722420 -123.258991 190 33186ft 440kts
18-Feb-21 19:24 42.600697 -123.254347 190 33187ft 439kts
18-Feb-21 19:25 42.478467 -123.249732 190 33186ft 440kts
18-Feb-21 19:26 42.356578 -123.245277 190 33186ft 439kts
18-Feb-21 19:27 42.234669 -123.240821 190 33186ft 440kts
18-Feb-21 19:28 42.112743 -123.236349 191 33186ft 440kts
18-Feb-21 19:29 41.990876 -123.231906 191 33185ft 439kts
18-Feb-21 19:30 41.868855 -123.227447 190 33188ft 439kts
18-Feb-21 19:31 41.746976 -123.222935 190 33209ft 439kts
18-Feb-21 19:32 41.625463 -123.218539 190 33232ft 438kts
18-Feb-21 19:33 41.503714 -123.214330 191 33246ft 438kts
18-Feb-21 19:34 41.382392 -123.210117 191 33250ft 438kts
18-Feb-21 19:35 41.260706 -123.206581 191 33250ft 438kts
18-Feb-21 19:36 41.139397 -123.203615 191 33251ft 438kts
18-Feb-21 19:38 41.016948 -123.200679 190 33248ft 446kts
18-Feb-21 19:39 40.891436 -123.197522 189 33251ft 454kts
18-Feb-21 19:40 40.765485 -123.194142 189 33253ft 454kts
18-Feb-21 19:41 40.639425 -123.190984 189 33307ft 454kts
18-Feb-21 19:42 40.513907 -123.187866 189 33352ft 453kts
18-Feb-21 19:43 40.388038 -123.184750 189 33360ft 453kts
18-Feb-21 19:44 40.262091 -123.181667 189 33361ft 454kts
18-Feb-21 19:45 40.136086 -123.178568 189 33362ft 454kts
18-Feb-21 19:46 40.010062 -123.175446 189 33359ft 454kts
18-Feb-21 19:47 39.883562 -123.170981 188 33355ft 455kts
18-Feb-21 19:48 39.757395 -123.164877 188 33354ft 455kts
18-Feb-21 19:49 39.630935 -123.159038 188 33355ft 455kts
18-Feb-21 19:50 39.504677 -123.153238 188 33354ft 456kts
18-Feb-21 19:51 39.378338 -123.147460 188 33354ft 456kts
18-Feb-21 19:52 39.251756 -123.141659 188 33354ft 455kts
18-Feb-21 19:53 39.124851 -123.127659 177 33354ft 470kts
18-Feb-21 19:54 39.001070 -123.062303 157 33257ft 498kts
18-Feb-21 19:55 38.884111 -122.971691 162 32150ft 478kts
18-Feb-21 19:56 38.761400 -122.924689 175 30036ft 454kts
18-Feb-21 19:57 38.640815 -122.889535 174 27572ft 439kts
18-Feb-21 19:58 38.524220 -122.855129 174 25120ft 420kts
18-Feb-21 19:59 38.411826 -122.822172 173 22930ft 410kts
18-Feb-21 20:00 38.303119 -122.790241 173 21126ft 393kts
18-Feb-21 20:01 38.198356 -122.759660 173 19365ft 383kts
18-Feb-21 20:01 38.112965 -122.734875 173 17739ft 375kts
18-Feb-21 20:03 37.996331 -122.701019 172 15458ft 364kts
18-Feb-21 20:04 37.899824 -122.669345 158 13505ft 362kts
18-Feb-21 20:04 37.833667 -122.604113 143 11885ft 361kts
18-Feb-21 20:05 37.761615 -122.527059 144 11009ft 310kts
18-Feb-21 20:07 37.684058 -122.444921 143 11012ft 312kts
18-Feb-21 20:08 37.617439 -122.374187 144 11008ft 313kts
18-Feb-21 20:08 37.554283 -122.333675 161 11007ft 305kts
18-Feb-21 20:09 37.478022 -122.287348 159 10738ft 305kts
18-Feb-21 20:11 37.397672 -122.237319 158 8670ft 260kts
18-Feb-21 20:11 37.347922 -122.195002 115 7188ft 275kts
18-Feb-21 20:12 37.374119 -122.127043 23 5648ft 224kts
18-Feb-21 20:14 37.434840 -122.085790 23 4013ft 201kts
18-Feb-21 20:14 37.471454 -122.063248 354 3981ft 157kts
18-Feb-21 20:15 37.497547 -122.100075 304 4005ft 143kts
18-Feb-21 20:16 37.517734 -122.139744 304 3875ft 133kts
18-Feb-21 20:17 37.536232 -122.180169 302 3128ft 133kts
18-Feb-21 20:18 37.553451 -122.220894 297 2391ft 127kts
18-Feb-21 20:19 37.570287 -122.259778 302 1850ft 127kts
18-Feb-21 20:20 37.587075 -122.299401 296 1161ft 125kts
18-Feb-21 20:21 37.603304 -122.338388 297 405ft 123kts
18-Feb-21 20:22 37.618307 -122.374050 298 18ft 65kts
18-Feb-21 20:23 37.621044 -122.383225 193 32ft 13kts
18-Feb-21 20:24 37.619124 -122.380729 121 32ft 14kts
18-Feb-21 20:25 37.615703 -122.380376 232 32ft 14kts
18-Feb-21 20:26 37.616589 -122.381226 17 32ft 0kts

Navigation Log

Ident Type
Flight plan parsing failed, navigation log unavailable